sensor_id;sensor_type;location;lat;lon;timestamp;P1;durP1;ratioP1;P2;durP2;ratioP2
7683;SDS011;3884;48.616;12.872;2024-01-06T00:01:04;17.53;;;14.63;;
7683;SDS011;3884;48.616;12.872;2024-01-06T00:03:31;18.83;;;14.73;;
7683;SDS011;3884;48.616;12.872;2024-01-06T00:05:58;17.50;;;14.67;;
7683;SDS011;3884;48.616;12.872;2024-01-06T00:08:25;18.73;;;14.73;;
7683;SDS011;3884;48.616;12.872;2024-01-06T00:10:53;22.37;;;15.90;;
7683;SDS011;3884;48.616;12.872;2024-01-06T00:13:22;23.67;;;16.53;;
7683;SDS011;3884;48.616;12.872;2024-01-06T00:15:49;21.37;;;15.30;;
7683;SDS011;3884;48.616;12.872;2024-01-06T00:18:19;20.37;;;15.63;;
7683;SDS011;3884;48.616;12.872;2024-01-06T00:20:46;17.07;;;14.40;;
7683;SDS011;3884;48.616;12.872;2024-01-06T00:23:15;17.43;;;15.50;;
7683;SDS011;3884;48.616;12.872;2024-01-06T00:25:42;17.70;;;15.10;;
7683;SDS011;3884;48.616;12.872;2024-01-06T00:28:09;20.00;;;15.70;;
7683;SDS011;3884;48.616;12.872;2024-01-06T00:30:37;17.30;;;14.80;;
7683;SDS011;3884;48.616;12.872;2024-01-06T00:33:04;18.37;;;15.53;;
7683;SDS011;3884;48.616;12.872;2024-01-06T00:35:32;17.93;;;14.20;;
7683;SDS011;3884;48.616;12.872;2024-01-06T00:37:59;18.83;;;14.53;;
7683;SDS011;3884;48.616;12.872;2024-01-06T00:40:27;20.60;;;14.23;;
7683;SDS011;3884;48.616;12.872;2024-01-06T00:42:54;16.93;;;14.20;;
7683;SDS011;3884;48.616;12.872;2024-01-06T00:45:21;18.43;;;15.07;;
7683;SDS011;3884;48.616;12.872;2024-01-06T00:47:48;16.93;;;14.00;;
7683;SDS011;3884;48.616;12.872;2024-01-06T00:50:18;20.10;;;15.47;;
7683;SDS011;3884;48.616;12.872;2024-01-06T00:52:47;16.70;;;14.33;;
7683;SDS011;3884;48.616;12.872;2024-01-06T00:55:18;15.83;;;14.23;;
7683;SDS011;3884;48.616;12.872;2024-01-06T00:58:12;17.37;;;15.20;;
7683;SDS011;3884;48.616;12.872;2024-01-06T01:00:39;16.80;;;14.73;;
7683;SDS011;3884;48.616;12.872;2024-01-06T01:03:21;16.43;;;14.40;;
7683;SDS011;3884;48.616;12.872;2024-01-06T01:05:50;17.40;;;14.23;;
7683;SDS011;3884;48.616;12.872;2024-01-06T01:08:19;18.60;;;14.63;;
7683;SDS011;3884;48.616;12.872;2024-01-06T01:10:50;16.47;;;14.50;;
7683;SDS011;3884;48.616;12.872;2024-01-06T01:13:18;18.37;;;14.23;;
7683;SDS011;3884;48.616;12.872;2024-01-06T01:15:46;16.47;;;14.57;;
7683;SDS011;3884;48.616;12.872;2024-01-06T01:18:17;16.13;;;13.77;;
7683;SDS011;3884;48.616;12.872;2024-01-06T01:20:45;20.87;;;15.27;;
7683;SDS011;3884;48.616;12.872;2024-01-06T01:23:15;18.23;;;15.53;;
7683;SDS011;3884;48.616;12.872;2024-01-06T01:25:46;17.30;;;14.07;;
7683;SDS011;3884;48.616;12.872;2024-01-06T01:28:17;17.40;;;14.80;;
7683;SDS011;3884;48.616;12.872;2024-01-06T01:30:48;17.83;;;15.40;;
7683;SDS011;3884;48.616;12.872;2024-01-06T01:33:14;18.03;;;15.63;;
7683;SDS011;3884;48.616;12.872;2024-01-06T01:35:42;23.00;;;17.00;;
7683;SDS011;3884;48.616;12.872;2024-01-06T01:38:09;17.00;;;15.07;;
7683;SDS011;3884;48.616;12.872;2024-01-06T01:40:37;18.40;;;15.53;;
7683;SDS011;3884;48.616;12.872;2024-01-06T01:43:05;18.80;;;15.27;;
7683;SDS011;3884;48.616;12.872;2024-01-06T01:45:32;17.43;;;15.30;;
7683;SDS011;3884;48.616;12.872;2024-01-06T01:47:59;18.47;;;15.60;;
7683;SDS011;3884;48.616;12.872;2024-01-06T01:50:26;20.97;;;15.40;;
7683;SDS011;3884;48.616;12.872;2024-01-06T01:52:55;19.93;;;17.03;;
7683;SDS011;3884;48.616;12.872;2024-01-06T01:55:23;17.90;;;15.80;;
7683;SDS011;3884;48.616;12.872;2024-01-06T01:57:50;18.13;;;15.60;;
7683;SDS011;3884;48.616;12.872;2024-01-06T02:00:19;17.57;;;15.47;;
7683;SDS011;3884;48.616;12.872;2024-01-06T02:02:46;18.47;;;16.47;;
7683;SDS011;3884;48.616;12.872;2024-01-06T02:05:13;20.50;;;16.13;;
7683;SDS011;3884;48.616;12.872;2024-01-06T02:07:40;18.70;;;15.17;;
7683;SDS011;3884;48.616;12.872;2024-01-06T02:10:07;19.17;;;16.47;;
7683;SDS011;3884;48.616;12.872;2024-01-06T02:12:34;18.60;;;15.63;;
7683;SDS011;3884;48.616;12.872;2024-01-06T02:15:01;17.90;;;15.57;;
7683;SDS011;3884;48.616;12.872;2024-01-06T02:17:31;19.97;;;16.03;;
7683;SDS011;3884;48.616;12.872;2024-01-06T02:19:58;19.03;;;15.57;;
7683;SDS011;3884;48.616;12.872;2024-01-06T02:22:26;18.70;;;16.03;;
7683;SDS011;3884;48.616;12.872;2024-01-06T02:24:53;17.90;;;15.57;;
7683;SDS011;3884;48.616;12.872;2024-01-06T02:27:21;18.97;;;14.10;;
7683;SDS011;3884;48.616;12.872;2024-01-06T02:29:48;18.37;;;15.77;;
7683;SDS011;3884;48.616;12.872;2024-01-06T02:32:15;18.13;;;14.73;;
7683;SDS011;3884;48.616;12.872;2024-01-06T02:34:42;18.47;;;15.67;;
7683;SDS011;3884;48.616;12.872;2024-01-06T02:37:09;21.63;;;17.50;;
7683;SDS011;3884;48.616;12.872;2024-01-06T02:39:38;19.33;;;15.87;;
7683;SDS011;3884;48.616;12.872;2024-01-06T02:42:05;21.13;;;16.00;;
7683;SDS011;3884;48.616;12.872;2024-01-06T02:44:33;19.77;;;16.33;;
7683;SDS011;3884;48.616;12.872;2024-01-06T02:47:00;17.77;;;15.53;;
7683;SDS011;3884;48.616;12.872;2024-01-06T02:49:26;18.60;;;16.47;;
7683;SDS011;3884;48.616;12.872;2024-01-06T02:51:53;19.80;;;17.70;;
7683;SDS011;3884;48.616;12.872;2024-01-06T02:54:20;22.70;;;18.30;;
7683;SDS011;3884;48.616;12.872;2024-01-06T02:56:49;24.60;;;19.57;;
7683;SDS011;3884;48.616;12.872;2024-01-06T02:59:16;21.83;;;19.13;;
7683;SDS011;3884;48.616;12.872;2024-01-06T03:01:43;28.47;;;20.20;;
7683;SDS011;3884;48.616;12.872;2024-01-06T03:04:10;31.70;;;21.97;;
7683;SDS011;3884;48.616;12.872;2024-01-06T03:06:37;27.30;;;22.00;;
7683;SDS011;3884;48.616;12.872;2024-01-06T03:09:05;29.10;;;20.73;;
7683;SDS011;3884;48.616;12.872;2024-01-06T03:11:32;22.70;;;18.63;;
7683;SDS011;3884;48.616;12.872;2024-01-06T03:14:02;23.30;;;19.63;;
7683;SDS011;3884;48.616;12.872;2024-01-06T03:16:29;22.63;;;17.87;;
7683;SDS011;3884;48.616;12.872;2024-01-06T03:18:56;21.03;;;18.20;;
7683;SDS011;3884;48.616;12.872;2024-01-06T03:21:23;19.60;;;16.73;;
7683;SDS011;3884;48.616;12.872;2024-01-06T03:23:51;19.60;;;17.37;;
7683;SDS011;3884;48.616;12.872;2024-01-06T03:26:20;21.20;;;17.87;;
7683;SDS011;3884;48.616;12.872;2024-01-06T03:28:48;20.23;;;17.57;;
7683;SDS011;3884;48.616;12.872;2024-01-06T03:31:24;25.00;;;19.30;;
7683;SDS011;3884;48.616;12.872;2024-01-06T03:33:52;22.33;;;18.83;;
7683;SDS011;3884;48.616;12.872;2024-01-06T03:36:20;22.20;;;18.43;;
7683;SDS011;3884;48.616;12.872;2024-01-06T03:38:47;22.60;;;18.87;;
7683;SDS011;3884;48.616;12.872;2024-01-06T03:41:14;21.93;;;18.37;;
7683;SDS011;3884;48.616;12.872;2024-01-06T03:43:41;23.47;;;19.70;;
7683;SDS011;3884;48.616;12.872;2024-01-06T03:46:08;25.13;;;20.47;;
7683;SDS011;3884;48.616;12.872;2024-01-06T03:48:37;26.50;;;20.60;;
7683;SDS011;3884;48.616;12.872;2024-01-06T03:51:04;25.30;;;20.93;;
7683;SDS011;3884;48.616;12.872;2024-01-06T03:53:32;27.53;;;22.37;;
7683;SDS011;3884;48.616;12.872;2024-01-06T03:55:59;29.27;;;22.57;;
7683;SDS011;3884;48.616;12.872;2024-01-06T03:58:26;27.87;;;22.10;;
7683;SDS011;3884;48.616;12.872;2024-01-06T04:00:53;27.93;;;22.87;;
7683;SDS011;3884;48.616;12.872;2024-01-06T04:03:19;33.40;;;24.83;;
7683;SDS011;3884;48.616;12.872;2024-01-06T04:05:48;41.20;;;31.03;;
7683;SDS011;3884;48.616;12.872;2024-01-06T04:08:16;35.80;;;27.33;;
7683;SDS011;3884;48.616;12.872;2024-01-06T04:10:45;34.97;;;26.87;;
7683;SDS011;3884;48.616;12.872;2024-01-06T04:13:12;33.57;;;25.40;;
7683;SDS011;3884;48.616;12.872;2024-01-06T04:15:39;35.03;;;26.60;;
7683;SDS011;3884;48.616;12.872;2024-01-06T04:18:06;36.77;;;28.90;;
7683;SDS011;3884;48.616;12.872;2024-01-06T04:20:34;42.30;;;31.73;;
7683;SDS011;3884;48.616;12.872;2024-01-06T04:23:03;37.10;;;26.90;;
7683;SDS011;3884;48.616;12.872;2024-01-06T04:25:30;33.80;;;25.23;;
7683;SDS011;3884;48.616;12.872;2024-01-06T04:27:57;33.27;;;26.43;;
7683;SDS011;3884;48.616;12.872;2024-01-06T04:30:24;35.43;;;26.60;;
7683;SDS011;3884;48.616;12.872;2024-01-06T04:32:51;34.00;;;26.60;;
7683;SDS011;3884;48.616;12.872;2024-01-06T04:35:19;32.23;;;24.87;;
7683;SDS011;3884;48.616;12.872;2024-01-06T04:37:47;30.67;;;23.73;;
7683;SDS011;3884;48.616;12.872;2024-01-06T04:40:16;33.70;;;23.73;;
7683;SDS011;3884;48.616;12.872;2024-01-06T04:42:44;29.93;;;24.23;;
7683;SDS011;3884;48.616;12.872;2024-01-06T04:45:11;30.13;;;23.53;;
7683;SDS011;3884;48.616;12.872;2024-01-06T04:47:37;32.33;;;23.50;;
7683;SDS011;3884;48.616;12.872;2024-01-06T04:50:05;31.30;;;23.50;;
7683;SDS011;3884;48.616;12.872;2024-01-06T04:52:32;32.30;;;23.30;;
7683;SDS011;3884;48.616;12.872;2024-01-06T04:54:59;35.57;;;23.73;;
7683;SDS011;3884;48.616;12.872;2024-01-06T04:57:29;32.13;;;24.10;;
7683;SDS011;3884;48.616;12.872;2024-01-06T04:59:57;31.70;;;24.20;;
7683;SDS011;3884;48.616;12.872;2024-01-06T05:02:24;33.90;;;24.67;;
7683;SDS011;3884;48.616;12.872;2024-01-06T05:04:51;33.50;;;23.67;;
7683;SDS011;3884;48.616;12.872;2024-01-06T05:07:18;35.53;;;24.83;;
7683;SDS011;3884;48.616;12.872;2024-01-06T05:09:45;34.50;;;25.03;;
7683;SDS011;3884;48.616;12.872;2024-01-06T05:12:12;33.63;;;23.57;;
7683;SDS011;3884;48.616;12.872;2024-01-06T05:14:41;35.70;;;24.63;;
7683;SDS011;3884;48.616;12.872;2024-01-06T05:17:08;37.13;;;23.70;;
7683;SDS011;3884;48.616;12.872;2024-01-06T05:19:36;37.67;;;24.63;;
7683;SDS011;3884;48.616;12.872;2024-01-06T05:22:03;32.37;;;23.53;;
7683;SDS011;3884;48.616;12.872;2024-01-06T05:24:30;33.00;;;22.70;;
7683;SDS011;3884;48.616;12.872;2024-01-06T05:26:57;34.33;;;23.27;;
7683;SDS011;3884;48.616;12.872;2024-01-06T05:29:24;34.93;;;22.77;;
7683;SDS011;3884;48.616;12.872;2024-01-06T05:31:53;35.33;;;22.53;;
7683;SDS011;3884;48.616;12.872;2024-01-06T05:34:20;35.67;;;22.87;;
7683;SDS011;3884;48.616;12.872;2024-01-06T05:36:47;36.40;;;24.27;;
7683;SDS011;3884;48.616;12.872;2024-01-06T05:39:14;32.37;;;21.27;;
7683;SDS011;3884;48.616;12.872;2024-01-06T05:41:41;33.63;;;23.20;;
7683;SDS011;3884;48.616;12.872;2024-01-06T05:44:08;36.17;;;23.17;;
7683;SDS011;3884;48.616;12.872;2024-01-06T05:46:35;33.23;;;22.40;;
7683;SDS011;3884;48.616;12.872;2024-01-06T05:49:05;36.63;;;22.83;;
7683;SDS011;3884;48.616;12.872;2024-01-06T05:51:33;35.97;;;22.90;;
7683;SDS011;3884;48.616;12.872;2024-01-06T05:54:00;35.77;;;22.67;;
7683;SDS011;3884;48.616;12.872;2024-01-06T05:56:27;34.90;;;22.10;;
7683;SDS011;3884;48.616;12.872;2024-01-06T05:58:55;33.97;;;21.60;;
7683;SDS011;3884;48.616;12.872;2024-01-06T06:01:22;35.23;;;22.43;;
7683;SDS011;3884;48.616;12.872;2024-01-06T06:03:50;30.27;;;21.43;;
7683;SDS011;3884;48.616;12.872;2024-01-06T06:06:19;31.50;;;19.60;;
7683;SDS011;3884;48.616;12.872;2024-01-06T06:08:46;37.93;;;22.83;;
7683;SDS011;3884;48.616;12.872;2024-01-06T06:11:13;32.53;;;21.50;;
7683;SDS011;3884;48.616;12.872;2024-01-06T06:13:40;31.10;;;20.30;;
7683;SDS011;3884;48.616;12.872;2024-01-06T06:16:08;33.23;;;20.93;;
7683;SDS011;3884;48.616;12.872;2024-01-06T06:18:37;30.80;;;19.43;;
7683;SDS011;3884;48.616;12.872;2024-01-06T06:21:04;31.40;;;20.00;;
7683;SDS011;3884;48.616;12.872;2024-01-06T06:23:34;30.43;;;19.97;;
7683;SDS011;3884;48.616;12.872;2024-01-06T06:26:09;28.80;;;19.13;;
7683;SDS011;3884;48.616;12.872;2024-01-06T06:28:37;28.83;;;19.10;;
7683;SDS011;3884;48.616;12.872;2024-01-06T06:31:03;30.57;;;18.83;;
7683;SDS011;3884;48.616;12.872;2024-01-06T06:33:30;28.20;;;19.40;;
7683;SDS011;3884;48.616;12.872;2024-01-06T06:35:58;29.07;;;19.03;;
7683;SDS011;3884;48.616;12.872;2024-01-06T06:38:25;29.97;;;20.47;;
7683;SDS011;3884;48.616;12.872;2024-01-06T06:40:53;33.30;;;20.17;;
7683;SDS011;3884;48.616;12.872;2024-01-06T06:43:34;30.30;;;19.73;;
7683;SDS011;3884;48.616;12.872;2024-01-06T06:46:03;31.03;;;20.30;;
7683;SDS011;3884;48.616;12.872;2024-01-06T06:48:43;28.33;;;19.00;;
7683;SDS011;3884;48.616;12.872;2024-01-06T06:51:18;28.53;;;19.20;;
7683;SDS011;3884;48.616;12.872;2024-01-06T06:53:50;25.63;;;18.97;;
7683;SDS011;3884;48.616;12.872;2024-01-06T06:56:19;28.60;;;19.47;;
7683;SDS011;3884;48.616;12.872;2024-01-06T06:58:59;32.10;;;21.10;;
7683;SDS011;3884;48.616;12.872;2024-01-06T07:01:34;26.57;;;19.33;;
7683;SDS011;3884;48.616;12.872;2024-01-06T07:04:01;28.53;;;21.17;;
7683;SDS011;3884;48.616;12.872;2024-01-06T07:06:28;28.87;;;20.90;;
7683;SDS011;3884;48.616;12.872;2024-01-06T07:09:09;30.20;;;21.33;;
7683;SDS011;3884;48.616;12.872;2024-01-06T07:11:53;29.20;;;21.37;;
7683;SDS011;3884;48.616;12.872;2024-01-06T07:14:34;30.77;;;22.67;;
7683;SDS011;3884;48.616;12.872;2024-01-06T07:17:02;30.13;;;22.10;;
7683;SDS011;3884;48.616;12.872;2024-01-06T07:19:44;33.60;;;23.30;;
7683;SDS011;3884;48.616;12.872;2024-01-06T07:22:24;33.63;;;24.40;;
7683;SDS011;3884;48.616;12.872;2024-01-06T07:24:51;32.37;;;25.00;;
7683;SDS011;3884;48.616;12.872;2024-01-06T07:30:18;35.70;;;26.23;;
7683;SDS011;3884;48.616;12.872;2024-01-06T07:32:59;35.50;;;26.50;;
7683;SDS011;3884;48.616;12.872;2024-01-06T07:35:40;42.20;;;32.13;;
7683;SDS011;3884;48.616;12.872;2024-01-06T07:38:15;40.87;;;30.77;;
7683;SDS011;3884;48.616;12.872;2024-01-06T07:40:56;46.47;;;37.70;;
7683;SDS011;3884;48.616;12.872;2024-01-06T07:43:46;40.80;;;32.13;;
7683;SDS011;3884;48.616;12.872;2024-01-06T07:46:29;36.30;;;27.57;;
7683;SDS011;3884;48.616;12.872;2024-01-06T07:49:12;38.77;;;28.83;;
7683;SDS011;3884;48.616;12.872;2024-01-06T07:52:05;56.97;;;44.23;;
7683;SDS011;3884;48.616;12.872;2024-01-06T07:54:49;38.07;;;29.67;;
7683;SDS011;3884;48.616;12.872;2024-01-06T07:57:28;41.93;;;33.23;;
7683;SDS011;3884;48.616;12.872;2024-01-06T08:19:03;25.13;;;20.30;;
7683;SDS011;3884;48.616;12.872;2024-01-06T08:21:48;26.60;;;21.37;;
7683;SDS011;3884;48.616;12.872;2024-01-06T08:24:31;27.33;;;21.60;;
7683;SDS011;3884;48.616;12.872;2024-01-06T08:27:12;119.17;;;78.60;;
7683;SDS011;3884;48.616;12.872;2024-01-06T08:29:53;34.97;;;26.90;;
7683;SDS011;3884;48.616;12.872;2024-01-06T08:32:33;23.73;;;18.97;;
7683;SDS011;3884;48.616;12.872;2024-01-06T08:47:20;27.80;;;20.90;;
7683;SDS011;3884;48.616;12.872;2024-01-06T08:50:01;27.13;;;21.77;;
7683;SDS011;3884;48.616;12.872;2024-01-06T08:52:32;26.37;;;21.00;;
7683;SDS011;3884;48.616;12.872;2024-01-06T08:55:13;31.43;;;21.90;;
7683;SDS011;3884;48.616;12.872;2024-01-06T08:57:55;30.07;;;22.20;;
7683;SDS011;3884;48.616;12.872;2024-01-06T09:10:09;34.70;;;26.23;;
7683;SDS011;3884;48.616;12.872;2024-01-06T09:12:41;121.47;;;65.97;;
7683;SDS011;3884;48.616;12.872;2024-01-06T09:15:09;74.53;;;47.93;;
7683;SDS011;3884;48.616;12.872;2024-01-06T09:17:52;31.43;;;23.77;;
7683;SDS011;3884;48.616;12.872;2024-01-06T09:20:33;37.30;;;26.63;;
7683;SDS011;3884;48.616;12.872;2024-01-06T09:23:14;33.73;;;26.20;;
7683;SDS011;3884;48.616;12.872;2024-01-06T09:28:52;26.60;;;20.80;;
7683;SDS011;3884;48.616;12.872;2024-01-06T09:31:20;27.10;;;20.67;;
7683;SDS011;3884;48.616;12.872;2024-01-06T09:33:49;33.50;;;26.17;;
7683;SDS011;3884;48.616;12.872;2024-01-06T09:36:30;20.73;;;15.47;;
7683;SDS011;3884;48.616;12.872;2024-01-06T09:39:11;18.43;;;14.00;;
7683;SDS011;3884;48.616;12.872;2024-01-06T09:44:51;52.50;;;32.87;;
7683;SDS011;3884;48.616;12.872;2024-01-06T09:47:50;22.17;;;18.17;;
7683;SDS011;3884;48.616;12.872;2024-01-06T09:51:00;17.73;;;13.97;;
7683;SDS011;3884;48.616;12.872;2024-01-06T09:53:43;17.57;;;14.87;;
7683;SDS011;3884;48.616;12.872;2024-01-06T09:56:15;16.23;;;13.17;;
7683;SDS011;3884;48.616;12.872;2024-01-06T10:01:46;14.63;;;12.93;;
7683;SDS011;3884;48.616;12.872;2024-01-06T10:04:14;16.17;;;13.17;;
7683;SDS011;3884;48.616;12.872;2024-01-06T10:06:43;25.27;;;12.33;;
7683;SDS011;3884;48.616;12.872;2024-01-06T10:09:11;17.67;;;12.53;;
7683;SDS011;3884;48.616;12.872;2024-01-06T10:11:56;16.97;;;12.50;;
7683;SDS011;3884;48.616;12.872;2024-01-06T10:14:49;26.30;;;14.40;;
7683;SDS011;3884;48.616;12.872;2024-01-06T10:17:23;16.87;;;10.67;;
7683;SDS011;3884;48.616;12.872;2024-01-06T10:20:00;14.53;;;11.77;;
7683;SDS011;3884;48.616;12.872;2024-01-06T10:22:41;17.83;;;11.73;;
7683;SDS011;3884;48.616;12.872;2024-01-06T10:25:10;15.47;;;12.27;;
7683;SDS011;3884;48.616;12.872;2024-01-06T10:27:38;24.47;;;19.87;;
7683;SDS011;3884;48.616;12.872;2024-01-06T10:30:23;21.33;;;14.50;;
7683;SDS011;3884;48.616;12.872;2024-01-06T10:32:51;16.47;;;11.80;;
7683;SDS011;3884;48.616;12.872;2024-01-06T10:35:19;18.80;;;13.37;;
7683;SDS011;3884;48.616;12.872;2024-01-06T10:38:16;15.20;;;10.00;;
7683;SDS011;3884;48.616;12.872;2024-01-06T10:40:55;14.47;;;9.37;;
7683;SDS011;3884;48.616;12.872;2024-01-06T10:43:23;14.10;;;10.27;;
7683;SDS011;3884;48.616;12.872;2024-01-06T10:45:54;13.33;;;11.57;;
7683;SDS011;3884;48.616;12.872;2024-01-06T10:48:24;19.23;;;12.97;;
7683;SDS011;3884;48.616;12.872;2024-01-06T10:50:51;16.23;;;11.47;;
7683;SDS011;3884;48.616;12.872;2024-01-06T10:53:21;14.77;;;10.50;;
7683;SDS011;3884;48.616;12.872;2024-01-06T10:55:50;14.93;;;10.93;;
7683;SDS011;3884;48.616;12.872;2024-01-06T10:58:19;13.93;;;11.23;;
7683;SDS011;3884;48.616;12.872;2024-01-06T11:00:46;15.03;;;10.77;;
7683;SDS011;3884;48.616;12.872;2024-01-06T11:03:14;14.07;;;11.53;;
7683;SDS011;3884;48.616;12.872;2024-01-06T11:05:41;14.83;;;10.33;;
7683;SDS011;3884;48.616;12.872;2024-01-06T11:20:21;13.13;;;10.30;;
7683;SDS011;3884;48.616;12.872;2024-01-06T11:23:17;17.90;;;10.87;;
7683;SDS011;3884;48.616;12.872;2024-01-06T11:25:45;14.93;;;10.60;;
7683;SDS011;3884;48.616;12.872;2024-01-06T11:28:18;14.23;;;11.10;;
7683;SDS011;3884;48.616;12.872;2024-01-06T11:33:54;14.23;;;11.40;;
7683;SDS011;3884;48.616;12.872;2024-01-06T11:36:22;16.03;;;11.60;;
7683;SDS011;3884;48.616;12.872;2024-01-06T11:39:04;17.13;;;13.40;;
7683;SDS011;3884;48.616;12.872;2024-01-06T11:41:49;19.20;;;16.50;;
7683;SDS011;3884;48.616;12.872;2024-01-06T11:44:27;16.43;;;12.63;;
7683;SDS011;3884;48.616;12.872;2024-01-06T11:46:56;15.07;;;11.43;;
7683;SDS011;3884;48.616;12.872;2024-01-06T11:49:25;15.07;;;11.70;;
7683;SDS011;3884;48.616;12.872;2024-01-06T11:51:53;14.50;;;11.73;;
7683;SDS011;3884;48.616;12.872;2024-01-06T11:54:21;15.23;;;11.30;;
7683;SDS011;3884;48.616;12.872;2024-01-06T11:56:48;16.17;;;11.50;;
7683;SDS011;3884;48.616;12.872;2024-01-06T11:59:21;15.50;;;11.13;;
7683;SDS011;3884;48.616;12.872;2024-01-06T12:01:48;16.60;;;11.63;;
7683;SDS011;3884;48.616;12.872;2024-01-06T12:07:17;14.47;;;11.57;;
7683;SDS011;3884;48.616;12.872;2024-01-06T12:09:45;17.17;;;11.60;;
7683;SDS011;3884;48.616;12.872;2024-01-06T12:12:14;16.40;;;11.30;;
7683;SDS011;3884;48.616;12.872;2024-01-06T12:14:42;14.20;;;11.90;;
7683;SDS011;3884;48.616;12.872;2024-01-06T12:17:09;16.90;;;11.73;;
7683;SDS011;3884;48.616;12.872;2024-01-06T12:19:38;15.03;;;11.90;;
7683;SDS011;3884;48.616;12.872;2024-01-06T12:22:09;19.67;;;11.13;;
7683;SDS011;3884;48.616;12.872;2024-01-06T12:24:38;17.67;;;11.27;;
7683;SDS011;3884;48.616;12.872;2024-01-06T12:27:06;16.10;;;10.70;;
7683;SDS011;3884;48.616;12.872;2024-01-06T12:29:37;15.00;;;10.67;;
7683;SDS011;3884;48.616;12.872;2024-01-06T12:32:05;20.10;;;13.67;;
7683;SDS011;3884;48.616;12.872;2024-01-06T12:34:33;17.73;;;12.33;;
7683;SDS011;3884;48.616;12.872;2024-01-06T12:37:00;18.70;;;14.13;;
7683;SDS011;3884;48.616;12.872;2024-01-06T12:39:43;15.90;;;10.87;;
7683;SDS011;3884;48.616;12.872;2024-01-06T12:42:14;13.33;;;10.70;;
7683;SDS011;3884;48.616;12.872;2024-01-06T12:44:49;15.20;;;10.73;;
7683;SDS011;3884;48.616;12.872;2024-01-06T12:47:16;17.37;;;12.00;;
7683;SDS011;3884;48.616;12.872;2024-01-06T12:49:43;20.10;;;12.87;;
7683;SDS011;3884;48.616;12.872;2024-01-06T12:52:11;15.03;;;12.63;;
7683;SDS011;3884;48.616;12.872;2024-01-06T12:54:38;13.80;;;11.80;;
7683;SDS011;3884;48.616;12.872;2024-01-06T12:57:14;15.97;;;10.83;;
7683;SDS011;3884;48.616;12.872;2024-01-06T12:59:42;17.23;;;11.57;;
7683;SDS011;3884;48.616;12.872;2024-01-06T13:02:09;19.93;;;12.70;;
7683;SDS011;3884;48.616;12.872;2024-01-06T13:04:36;18.67;;;13.57;;
7683;SDS011;3884;48.616;12.872;2024-01-06T13:07:03;18.13;;;12.97;;
7683;SDS011;3884;48.616;12.872;2024-01-06T13:09:31;16.80;;;12.27;;
7683;SDS011;3884;48.616;12.872;2024-01-06T13:11:58;16.33;;;12.40;;
7683;SDS011;3884;48.616;12.872;2024-01-06T13:14:28;17.17;;;12.27;;
7683;SDS011;3884;48.616;12.872;2024-01-06T13:16:56;15.17;;;11.97;;
7683;SDS011;3884;48.616;12.872;2024-01-06T13:19:24;20.70;;;14.17;;
7683;SDS011;3884;48.616;12.872;2024-01-06T13:21:56;15.97;;;13.30;;
7683;SDS011;3884;48.616;12.872;2024-01-06T13:24:23;21.53;;;12.60;;
7683;SDS011;3884;48.616;12.872;2024-01-06T13:26:50;16.37;;;11.70;;
7683;SDS011;3884;48.616;12.872;2024-01-06T13:29:18;13.40;;;11.23;;
7683;SDS011;3884;48.616;12.872;2024-01-06T13:31:47;16.77;;;11.70;;
7683;SDS011;3884;48.616;12.872;2024-01-06T13:34:14;15.27;;;11.17;;
7683;SDS011;3884;48.616;12.872;2024-01-06T13:36:42;16.73;;;11.27;;
7683;SDS011;3884;48.616;12.872;2024-01-06T13:39:09;16.40;;;11.53;;
7683;SDS011;3884;48.616;12.872;2024-01-06T13:41:42;15.10;;;11.27;;
7683;SDS011;3884;48.616;12.872;2024-01-06T13:44:09;23.07;;;14.13;;
7683;SDS011;3884;48.616;12.872;2024-01-06T13:46:44;17.20;;;12.23;;
7683;SDS011;3884;48.616;12.872;2024-01-06T13:49:17;17.03;;;11.30;;
7683;SDS011;3884;48.616;12.872;2024-01-06T13:51:44;14.57;;;11.77;;
7683;SDS011;3884;48.616;12.872;2024-01-06T13:54:11;16.77;;;14.37;;
7683;SDS011;3884;48.616;12.872;2024-01-06T13:56:39;14.60;;;12.17;;
7683;SDS011;3884;48.616;12.872;2024-01-06T13:59:06;17.50;;;12.07;;
7683;SDS011;3884;48.616;12.872;2024-01-06T14:01:47;16.27;;;11.23;;
7683;SDS011;3884;48.616;12.872;2024-01-06T14:04:14;16.33;;;11.67;;
7683;SDS011;3884;48.616;12.872;2024-01-06T14:06:43;15.90;;;12.20;;
7683;SDS011;3884;48.616;12.872;2024-01-06T14:09:13;14.13;;;11.10;;
7683;SDS011;3884;48.616;12.872;2024-01-06T14:11:40;15.77;;;11.43;;
7683;SDS011;3884;48.616;12.872;2024-01-06T14:14:07;14.67;;;10.30;;
7683;SDS011;3884;48.616;12.872;2024-01-06T14:16:34;13.77;;;11.10;;
7683;SDS011;3884;48.616;12.872;2024-01-06T14:19:01;14.33;;;11.00;;
7683;SDS011;3884;48.616;12.872;2024-01-06T14:21:30;14.53;;;11.10;;
7683;SDS011;3884;48.616;12.872;2024-01-06T14:23:56;15.83;;;11.10;;
7683;SDS011;3884;48.616;12.872;2024-01-06T14:26:24;15.90;;;10.40;;
7683;SDS011;3884;48.616;12.872;2024-01-06T14:28:51;12.97;;;9.70;;
7683;SDS011;3884;48.616;12.872;2024-01-06T14:31:18;17.53;;;12.27;;
7683;SDS011;3884;48.616;12.872;2024-01-06T14:33:46;17.27;;;13.40;;
7683;SDS011;3884;48.616;12.872;2024-01-06T14:36:12;14.70;;;10.57;;
7683;SDS011;3884;48.616;12.872;2024-01-06T14:38:41;16.97;;;11.97;;
7683;SDS011;3884;48.616;12.872;2024-01-06T14:41:08;19.70;;;14.57;;
7683;SDS011;3884;48.616;12.872;2024-01-06T14:43:35;15.57;;;12.03;;
7683;SDS011;3884;48.616;12.872;2024-01-06T14:46:02;23.83;;;17.50;;
7683;SDS011;3884;48.616;12.872;2024-01-06T14:48:30;17.40;;;12.23;;
7683;SDS011;3884;48.616;12.872;2024-01-06T14:50:58;19.60;;;13.60;;
7683;SDS011;3884;48.616;12.872;2024-01-06T14:53:27;19.10;;;11.70;;
7683;SDS011;3884;48.616;12.872;2024-01-06T14:55:56;16.90;;;11.87;;
7683;SDS011;3884;48.616;12.872;2024-01-06T14:58:23;17.30;;;11.90;;
7683;SDS011;3884;48.616;12.872;2024-01-06T15:00:50;18.10;;;13.23;;
7683;SDS011;3884;48.616;12.872;2024-01-06T15:03:17;16.53;;;12.47;;
7683;SDS011;3884;48.616;12.872;2024-01-06T15:05:45;17.23;;;13.43;;
7683;SDS011;3884;48.616;12.872;2024-01-06T15:08:12;17.33;;;12.20;;
7683;SDS011;3884;48.616;12.872;2024-01-06T15:10:39;18.07;;;13.30;;
7683;SDS011;3884;48.616;12.872;2024-01-06T15:13:07;18.97;;;13.13;;
7683;SDS011;3884;48.616;12.872;2024-01-06T15:15:34;16.37;;;13.70;;
7683;SDS011;3884;48.616;12.872;2024-01-06T15:18:01;14.90;;;12.57;;
7683;SDS011;3884;48.616;12.872;2024-01-06T15:20:28;18.93;;;14.33;;
7683;SDS011;3884;48.616;12.872;2024-01-06T15:22:55;21.07;;;13.80;;
7683;SDS011;3884;48.616;12.872;2024-01-06T15:25:22;19.73;;;14.33;;
7683;SDS011;3884;48.616;12.872;2024-01-06T15:27:49;19.70;;;14.23;;
7683;SDS011;3884;48.616;12.872;2024-01-06T15:30:18;19.80;;;14.20;;
7683;SDS011;3884;48.616;12.872;2024-01-06T15:32:45;18.23;;;14.60;;
7683;SDS011;3884;48.616;12.872;2024-01-06T15:35:13;18.27;;;14.13;;
7683;SDS011;3884;48.616;12.872;2024-01-06T15:37:40;19.83;;;14.37;;
7683;SDS011;3884;48.616;12.872;2024-01-06T15:40:07;17.70;;;14.30;;
7683;SDS011;3884;48.616;12.872;2024-01-06T15:42:35;18.93;;;13.70;;
7683;SDS011;3884;48.616;12.872;2024-01-06T15:45:02;19.53;;;14.67;;
7683;SDS011;3884;48.616;12.872;2024-01-06T15:47:31;19.40;;;15.80;;
7683;SDS011;3884;48.616;12.872;2024-01-06T15:49:58;19.17;;;14.83;;
7683;SDS011;3884;48.616;12.872;2024-01-06T15:52:25;21.47;;;16.70;;
7683;SDS011;3884;48.616;12.872;2024-01-06T15:54:52;25.53;;;18.67;;
7683;SDS011;3884;48.616;12.872;2024-01-06T15:57:19;17.47;;;14.80;;
7683;SDS011;3884;48.616;12.872;2024-01-06T15:59:46;20.27;;;15.37;;
7683;SDS011;3884;48.616;12.872;2024-01-06T16:02:13;24.33;;;15.33;;